サンフランシスコ の空港の天気 - METARとTAF

サンフランシスコ国際空港 ( KSFO / SFO ) - アメリカ合衆国 カリフォルニア州サンマテオ郡
飛行場実況気象(Metar)
観測時間04/27 08:56 PDT (04/27 15:56 UTC)
風向・風速北 2m/s
視程10km以上
天気現象
少しの雲 雲底高度 610m
全天の8割程度の雲 雲底高度 6100m
気温15℃
湿度69%
気圧1018.1hPa
METARKSFO 271556Z 35003KT 10SM FEW020 BKN200 15/09 A3007 RMK AO2 SLP181 T01500094 $
過去の天気等 Google飛行場航空写真 Wunderground天気予報

過去48時間のMETAR

飛行場予報(TAF)
発表時間: 4/27 07:40 PDT (4/27 14:40 UTC)
予報対象時間: 27日8時 PDT ~ 28日11時 PDT
風向・風速西 6m/s
視程10km以上
少しの雲 雲底高度 300m
全天の8割程度の雲 雲底高度 6,100m
27日9時 PDT から
風向・風速西 7m/s 瞬間風速 12m/s
視程10km以上
少しの雲 雲底高度 210m
少しの雲 雲底高度 370m
全天の8割程度の雲 雲底高度 6,100m
27日15時 PDT から
風向・風速西 9m/s 瞬間風速 14m/s
視程10km以上
少しの雲 雲底高度 610m
全天の4割程度の雲 雲底高度 7,620m
27日21時 PDT から
風向・風速西 7m/s
視程10km以上
少しの雲 雲底高度 460m
全天の4割程度の雲 雲底高度 7,620m
28日2時 PDT から
風向・風速西 5m/s
視程10km以上
少しの雲 雲底高度 460m
全天の4割程度の雲 雲底高度 7,620m
28日8時 PDT から
風向・風速西北西 3m/s
視程10km以上
少しの雲 雲底高度 460m
全天の4割程度の雲 雲底高度 7,620m
KSFO 271440Z 2715/2818 27012KT P6SM FEW010 BKN200
FM271600 28014G24KT P6SM FEW007 FEW012 BKN200
FM272200 28018G28KT P6SM FEW020 SCT250
FM280400 28014KT P6SM FEW015 SCT250
FM280900 28010KT P6SM FEW015 SCT250
FM281500 30006KT P6SM FEW015 SCT250